createdAt,value
2022-07-25T00:01:56.708Z,21.08
2022-07-25T00:04:24.425Z,7.97
2022-07-25T00:06:51.829Z,8.68
2022-07-25T00:09:19.226Z,10.02
2022-07-25T00:11:46.564Z,6.40
2022-07-25T00:14:14.105Z,20.20
2022-07-25T00:16:41.706Z,9.00
2022-07-25T00:19:09.031Z,8.35
2022-07-25T00:21:36.333Z,9.95
2022-07-25T00:24:04.251Z,6.97
2022-07-25T00:26:35.430Z,6.22
2022-07-25T00:29:05.317Z,10.60
2022-07-25T00:31:32.774Z,12.73
2022-07-25T00:34:00.137Z,8.35
2022-07-25T00:36:27.426Z,9.65
2022-07-25T00:38:54.736Z,11.57
2022-07-25T00:41:22.181Z,7.78
2022-07-25T00:43:49.647Z,9.40
2022-07-25T00:46:18.829Z,8.40
2022-07-25T00:48:46.642Z,12.13
2022-07-25T00:51:14.892Z,10.48
2022-07-25T00:53:42.294Z,8.23
2022-07-25T00:56:09.600Z,7.35
2022-07-25T00:58:36.947Z,8.63
2022-07-25T01:01:04.893Z,9.93
2022-07-25T01:03:32.325Z,7.25
2022-07-25T01:05:59.683Z,8.90
2022-07-25T01:08:27.582Z,11.07
2022-07-25T01:10:54.992Z,12.20
2022-07-25T01:13:22.294Z,9.05
2022-07-25T01:15:49.658Z,6.30
2022-07-25T01:18:17.618Z,4.60
2022-07-25T01:20:44.962Z,4.63
2022-07-25T01:23:12.234Z,15.00
2022-07-25T01:25:39.596Z,8.52
2022-07-25T01:28:06.996Z,14.32
2022-07-25T01:30:34.285Z,7.72
2022-07-25T01:33:06.970Z,13.35
2022-07-25T01:35:34.668Z,18.02
2022-07-25T01:38:02.114Z,10.77
2022-07-25T01:40:29.413Z,11.32
2022-07-25T01:42:56.707Z,14.50
2022-07-25T01:45:24.047Z,11.93
2022-07-25T01:47:51.479Z,18.92
2022-07-25T01:50:18.884Z,12.23
2022-07-25T01:52:46.443Z,5.72
2022-07-25T01:55:13.768Z,12.10
2022-07-25T01:57:41.570Z,9.63
2022-07-25T02:00:18.041Z,5.05
2022-07-25T02:02:45.558Z,8.95
2022-07-25T02:05:14.214Z,14.73
2022-07-25T02:07:41.533Z,11.23
2022-07-25T02:10:09.587Z,11.63
2022-07-25T02:12:37.030Z,13.65
2022-07-25T02:15:04.733Z,9.52
2022-07-25T02:17:32.059Z,11.13
2022-07-25T02:19:59.414Z,12.57
2022-07-25T02:22:26.697Z,10.00
2022-07-25T02:24:54.016Z,13.10
2022-07-25T02:27:21.307Z,12.70
2022-07-25T02:29:48.586Z,14.60
2022-07-25T02:32:15.848Z,19.48
2022-07-25T02:34:43.136Z,25.25
2022-07-25T02:37:10.465Z,17.85
2022-07-25T02:39:37.739Z,9.43
2022-07-25T02:42:05.205Z,17.67
2022-07-25T02:44:32.691Z,22.52
2022-07-25T02:46:59.947Z,14.68
2022-07-25T02:49:27.224Z,12.77
2022-07-25T02:51:54.490Z,30.60
2022-07-25T02:54:22.128Z,16.83
2022-07-25T02:56:49.491Z,13.52
2022-07-25T02:59:16.842Z,15.75
2022-07-25T03:01:44.183Z,12.52
2022-07-25T03:04:11.817Z,13.40
2022-07-25T03:06:39.179Z,20.00
2022-07-25T03:09:06.497Z,17.88
2022-07-25T03:11:34.867Z,22.02
2022-07-25T03:14:02.240Z,16.23
2022-07-25T03:16:29.799Z,21.23
2022-07-25T03:18:57.095Z,17.95
2022-07-25T03:21:24.355Z,14.85
2022-07-25T03:23:52.887Z,19.30
2022-07-25T03:26:20.593Z,13.27
2022-07-25T03:28:47.963Z,18.60
2022-07-25T03:31:15.379Z,12.20
2022-07-25T03:33:42.720Z,17.27
2022-07-25T03:36:11.679Z,21.48
2022-07-25T03:38:39.442Z,15.57
2022-07-25T03:41:06.773Z,18.92
2022-07-25T03:43:34.053Z,16.00
2022-07-25T03:46:01.405Z,29.02
2022-07-25T03:48:28.804Z,16.70
2022-07-25T03:50:57.050Z,24.15
2022-07-25T03:53:24.392Z,22.40
2022-07-25T03:55:51.727Z,17.95
2022-07-25T03:58:19.039Z,14.60
2022-07-25T04:00:48.661Z,15.07
2022-07-25T04:03:16.057Z,31.40
2022-07-25T04:05:47.392Z,22.48
2022-07-25T04:08:15.179Z,13.88
2022-07-25T04:10:42.489Z,19.70
2022-07-25T04:13:09.873Z,11.38
2022-07-25T04:15:37.149Z,30.45
2022-07-25T04:18:06.747Z,20.60
2022-07-25T04:20:37.491Z,18.38
2022-07-25T04:23:04.870Z,19.60
2022-07-25T04:25:32.187Z,19.55
2022-07-25T04:27:59.535Z,12.93
2022-07-25T04:30:26.831Z,18.23
2022-07-25T04:32:54.094Z,12.10
2022-07-25T04:35:21.575Z,25.85
2022-07-25T04:37:49.453Z,23.88
2022-07-25T04:40:16.819Z,15.70
2022-07-25T04:42:44.098Z,21.02
2022-07-25T04:45:11.844Z,20.25
2022-07-25T04:47:40.610Z,25.52
2022-07-25T04:50:08.558Z,15.35
2022-07-25T04:52:35.849Z,25.13
2022-07-25T04:55:04.136Z,24.98
2022-07-25T04:57:31.906Z,18.63
2022-07-25T04:59:59.369Z,15.10
2022-07-25T05:02:26.718Z,15.07
2022-07-25T05:04:54.049Z,22.17
2022-07-25T05:07:21.389Z,20.95
2022-07-25T05:09:48.685Z,33.53
2022-07-25T05:12:16.167Z,15.88
2022-07-25T05:14:43.718Z,15.23
2022-07-25T05:17:11.338Z,29.42
2022-07-25T05:19:38.718Z,25.63
2022-07-25T05:22:06.046Z,18.02
2022-07-25T05:24:34.535Z,20.83
2022-07-25T05:27:02.330Z,20.42
2022-07-25T05:29:29.785Z,21.02
2022-07-25T05:31:57.273Z,18.92
2022-07-25T05:34:25.165Z,17.80
2022-07-25T05:36:52.421Z,16.92
2022-07-25T05:39:19.719Z,17.95
2022-07-25T05:41:47.078Z,19.88
2022-07-25T05:44:14.366Z,20.02
2022-07-25T05:46:41.822Z,10.48
2022-07-25T05:49:09.302Z,20.10
2022-07-25T05:51:37.104Z,16.90
2022-07-25T05:54:04.742Z,16.75
2022-07-25T05:56:32.333Z,9.50
2022-07-25T05:58:59.654Z,18.48
2022-07-25T06:01:27.077Z,12.68
2022-07-25T06:03:54.639Z,15.23
2022-07-25T06:06:21.932Z,16.15
2022-07-25T06:08:49.201Z,12.38
2022-07-25T06:11:16.703Z,17.83
2022-07-25T06:13:44.446Z,17.80
2022-07-25T06:16:11.761Z,15.00
2022-07-25T06:18:39.072Z,11.80
2022-07-25T06:21:06.625Z,14.63
2022-07-25T06:23:33.887Z,12.95
2022-07-25T06:26:01.156Z,12.75
2022-07-25T06:28:29.042Z,13.75
2022-07-25T06:30:56.694Z,11.43
2022-07-25T06:33:24.058Z,13.52
2022-07-25T06:35:51.423Z,12.32
2022-07-25T06:38:18.723Z,11.30
2022-07-25T06:40:46.642Z,15.82
2022-07-25T06:43:13.956Z,14.43
2022-07-25T06:45:43.007Z,10.38
2022-07-25T06:48:10.276Z,7.95
2022-07-25T06:50:37.558Z,12.77
2022-07-25T06:53:04.885Z,10.00
2022-07-25T06:55:32.201Z,17.33
2022-07-25T06:57:59.527Z,9.38
2022-07-25T07:00:27.108Z,16.73
2022-07-25T07:02:58.573Z,8.73
2022-07-25T07:05:29.683Z,8.15
2022-07-25T07:07:57.628Z,11.68
2022-07-25T07:10:25.831Z,4.88
2022-07-25T07:13:13.341Z,6.00
2022-07-25T07:15:50.009Z,16.40
2022-07-25T07:18:18.887Z,11.37
2022-07-25T07:20:47.181Z,11.48
2022-07-25T07:23:16.869Z,14.52
2022-07-25T07:25:47.171Z,18.50
2022-07-25T07:28:15.693Z,11.65
2022-07-25T07:33:30.716Z,15.13
2022-07-25T07:35:58.120Z,14.40
2022-07-25T07:38:26.082Z,11.63
2022-07-25T07:40:54.140Z,3.08
2022-07-25T07:43:25.030Z,8.43
2022-07-25T07:45:56.949Z,11.13
2022-07-25T07:48:24.285Z,8.05
2022-07-25T07:50:51.682Z,9.02
2022-07-25T07:53:18.961Z,22.63
2022-07-25T07:55:48.183Z,11.30
2022-07-25T07:58:17.761Z,8.20
2022-07-25T08:00:47.649Z,10.27
2022-07-25T08:03:19.501Z,13.60
2022-07-25T08:05:49.253Z,6.35
2022-07-25T08:08:16.714Z,3.15
2022-07-25T08:10:46.764Z,6.45
2022-07-25T08:13:27.797Z,12.18
2022-07-25T08:15:58.108Z,11.00
2022-07-25T08:18:27.410Z,2.70
2022-07-25T08:20:54.763Z,9.57
2022-07-25T08:23:22.646Z,7.85
2022-07-25T08:25:49.987Z,11.88
2022-07-25T08:28:17.412Z,3.15
2022-07-25T08:30:44.985Z,7.63
2022-07-25T08:33:13.883Z,6.20
2022-07-25T08:35:46.145Z,7.60
2022-07-25T08:38:13.713Z,4.05
2022-07-25T08:40:41.129Z,8.93
2022-07-25T08:43:12.881Z,8.25
2022-07-25T08:45:54.199Z,8.15
2022-07-25T08:48:23.961Z,6.53
2022-07-25T08:50:52.777Z,5.53
2022-07-25T08:53:36.369Z,8.02
2022-07-25T08:56:11.530Z,8.55
2022-07-25T08:58:40.520Z,11.05
2022-07-25T09:01:08.359Z,15.60
2022-07-25T09:03:36.458Z,10.48
2022-07-25T09:06:15.534Z,3.15
2022-07-25T09:09:12.069Z,6.68
2022-07-25T09:11:39.439Z,4.53
2022-07-25T09:14:10.422Z,6.45
2022-07-25T09:16:41.255Z,8.00
2022-07-25T09:19:14.485Z,7.03
2022-07-25T09:21:44.245Z,5.97
2022-07-25T09:24:12.947Z,6.68
2022-07-25T09:26:48.933Z,10.10
2022-07-25T09:29:19.007Z,12.30
2022-07-25T09:31:46.504Z,7.45
2022-07-25T09:34:37.698Z,4.50
2022-07-25T09:37:10.625Z,5.97
2022-07-25T09:39:51.835Z,3.45
2022-07-25T09:42:27.746Z,11.93
2022-07-25T09:45:05.932Z,8.95
2022-07-25T09:47:36.664Z,7.00
2022-07-25T09:50:05.756Z,9.48
2022-07-25T09:52:33.840Z,8.27
2022-07-25T09:55:04.130Z,3.25
2022-07-25T09:57:31.618Z,3.03
2022-07-25T10:00:00.437Z,13.13
2022-07-25T10:02:45.765Z,5.88
2022-07-25T10:05:51.473Z,7.43
2022-07-25T10:08:20.144Z,2.97
2022-07-25T10:10:47.726Z,11.85
2022-07-25T10:13:18.089Z,5.32
2022-07-25T10:15:49.585Z,6.00
2022-07-25T10:18:19.928Z,2.17
2022-07-25T10:20:49.459Z,5.05
2022-07-25T10:23:28.100Z,6.85
2022-07-25T10:26:02.855Z,4.60
2022-07-25T10:28:47.240Z,10.75
2022-07-25T10:31:39.722Z,3.95
2022-07-25T10:34:10.690Z,2.97
2022-07-25T10:36:54.166Z,3.90
2022-07-25T10:39:22.342Z,4.97
2022-07-25T10:42:02.294Z,2.53
2022-07-25T10:44:41.484Z,3.15
2022-07-25T10:47:11.170Z,3.75
2022-07-25T10:50:00.271Z,18.30
2022-07-25T10:52:31.613Z,3.67
2022-07-25T10:55:00.720Z,2.45
2022-07-25T10:57:31.989Z,6.57
2022-07-25T11:00:09.281Z,8.70
2022-07-25T11:02:36.730Z,4.07
2022-07-25T11:05:04.810Z,5.50
2022-07-25T11:07:36.225Z,2.17
2022-07-25T11:10:06.171Z,4.13
2022-07-25T11:12:33.663Z,7.93
2022-07-25T11:15:03.992Z,5.75
2022-07-25T11:17:31.365Z,5.50
2022-07-25T11:20:10.454Z,2.80
2022-07-25T11:22:37.792Z,5.68
2022-07-25T11:25:14.462Z,2.20
2022-07-25T11:27:41.791Z,2.60
2022-07-25T11:30:10.122Z,4.80
2022-07-25T11:32:58.213Z,2.35
2022-07-25T11:35:28.451Z,3.53
2022-07-25T11:37:56.699Z,0.75
2022-07-25T11:40:25.787Z,2.28
2022-07-25T11:42:59.507Z,3.58
2022-07-25T11:45:28.853Z,1.40
2022-07-25T11:48:08.036Z,2.40
2022-07-25T11:50:37.765Z,1.27
2022-07-25T11:53:07.398Z,3.72
2022-07-25T11:55:37.308Z,2.00
2022-07-25T11:58:05.495Z,3.20
2022-07-25T12:00:40.303Z,5.07
2022-07-25T12:03:18.987Z,6.05
2022-07-25T12:05:48.038Z,2.80
2022-07-25T12:08:20.625Z,5.20
2022-07-25T12:10:51.140Z,3.92
2022-07-25T12:13:24.411Z,3.72
2022-07-25T12:15:51.992Z,5.85
2022-07-25T12:18:19.412Z,5.25
2022-07-25T12:20:46.798Z,2.42
2022-07-25T12:23:14.746Z,6.43
2022-07-25T12:25:44.536Z,2.75
2022-07-25T12:28:12.020Z,0.82
2022-07-25T12:30:40.595Z,2.47
2022-07-25T12:33:08.197Z,3.63
2022-07-25T12:35:37.396Z,8.90
2022-07-25T12:38:05.325Z,53.53
2022-07-25T12:40:33.225Z,98.63
2022-07-25T12:43:01.315Z,47.53
2022-07-25T12:45:28.800Z,4.93
2022-07-25T12:47:56.424Z,3.95
2022-07-25T12:50:25.829Z,15.90
2022-07-25T12:52:53.838Z,4.57
2022-07-25T12:55:21.518Z,9.27
2022-07-25T12:57:49.844Z,6.72
2022-07-25T13:00:20.251Z,3.22
2022-07-25T13:02:48.886Z,1.83
2022-07-25T13:05:16.471Z,8.57
2022-07-25T13:07:44.031Z,6.35
2022-07-25T13:10:12.663Z,8.60
2022-07-25T13:12:40.139Z,4.72
2022-07-25T13:15:08.340Z,2.67
2022-07-25T13:17:35.934Z,1.42
2022-07-25T13:20:04.438Z,3.80
2022-07-25T13:22:31.810Z,9.98
2022-07-25T13:24:59.153Z,3.83
2022-07-25T13:27:26.449Z,5.15
2022-07-25T13:29:57.784Z,3.67
2022-07-25T13:32:26.683Z,1.92
2022-07-25T13:34:54.380Z,3.92
2022-07-25T13:37:21.753Z,4.70
2022-07-25T13:39:49.223Z,5.70
2022-07-25T13:42:16.735Z,8.35
2022-07-25T13:44:44.077Z,1.85
2022-07-25T13:47:11.705Z,3.47
2022-07-25T13:49:39.209Z,6.10
2022-07-25T13:52:06.811Z,3.08
2022-07-25T13:54:34.074Z,7.20
2022-07-25T13:57:03.448Z,4.18
2022-07-25T13:59:31.085Z,2.58
2022-07-25T14:01:58.523Z,2.17
2022-07-25T14:04:25.963Z,6.35
2022-07-25T14:06:53.667Z,4.63
2022-07-25T14:09:22.188Z,3.90
2022-07-25T14:11:49.625Z,2.28
2022-07-25T14:14:17.002Z,3.05
2022-07-25T14:16:44.854Z,6.35
2022-07-25T14:19:12.529Z,5.13
2022-07-25T14:21:39.846Z,4.55
2022-07-25T14:24:07.645Z,10.80
2022-07-25T14:26:35.310Z,11.27
2022-07-25T14:29:03.635Z,2.15
2022-07-25T14:31:32.812Z,3.28
2022-07-25T14:34:00.193Z,1.65
2022-07-25T14:36:27.840Z,4.05
2022-07-25T14:38:55.385Z,2.58
2022-07-25T14:41:22.704Z,5.10
2022-07-25T14:43:50.089Z,1.60
2022-07-25T14:46:17.485Z,2.22
2022-07-25T14:48:44.915Z,3.70
2022-07-25T14:51:12.307Z,5.00
2022-07-25T14:53:39.645Z,5.00
2022-07-25T14:56:07.290Z,2.72
2022-07-25T14:58:35.404Z,2.75
2022-07-25T15:01:02.862Z,6.30
2022-07-25T15:03:30.251Z,2.65
2022-07-25T15:05:57.726Z,5.00
2022-07-25T15:08:25.014Z,3.20
2022-07-25T15:10:52.385Z,2.58
2022-07-25T15:13:34.955Z,8.38
2022-07-25T15:16:03.662Z,6.10
2022-07-25T15:18:31.768Z,4.28
2022-07-25T15:20:59.210Z,2.28
2022-07-25T15:23:30.212Z,4.63
2022-07-25T15:26:01.865Z,4.78
2022-07-25T15:28:35.649Z,2.53
2022-07-25T15:31:03.555Z,4.88
2022-07-25T15:33:31.404Z,5.75
2022-07-25T15:35:59.040Z,13.25
2022-07-25T15:38:26.378Z,6.93
2022-07-25T15:40:53.718Z,6.07
2022-07-25T15:43:21.325Z,9.93
2022-07-25T15:45:48.665Z,10.90
2022-07-25T15:48:17.186Z,4.03
2022-07-25T15:50:48.402Z,6.45
2022-07-25T15:53:15.826Z,7.93
2022-07-25T15:55:43.316Z,3.75
2022-07-25T15:58:11.449Z,7.05
2022-07-25T16:00:39.784Z,3.30
2022-07-25T16:03:07.631Z,4.93
2022-07-25T16:05:36.444Z,2.70
2022-07-25T16:08:04.310Z,5.38
2022-07-25T16:10:32.968Z,2.03
2022-07-25T16:13:01.080Z,3.60
2022-07-25T16:15:28.829Z,6.72
2022-07-25T16:18:01.741Z,3.25
2022-07-25T16:20:33.941Z,3.40
2022-07-25T16:23:01.980Z,3.65
2022-07-25T16:25:30.106Z,5.90
2022-07-25T16:27:58.424Z,2.45
2022-07-25T16:30:26.235Z,3.63
2022-07-25T16:32:53.582Z,1.52
2022-07-25T16:35:21.262Z,2.03
2022-07-25T16:37:48.609Z,4.35
2022-07-25T16:40:16.171Z,21.60
2022-07-25T16:42:43.695Z,6.47
2022-07-25T16:45:11.409Z,5.50
2022-07-25T16:47:40.946Z,4.28
2022-07-25T16:50:08.893Z,2.97
2022-07-25T16:52:36.203Z,5.32
2022-07-25T16:55:05.260Z,6.38
2022-07-25T16:57:32.771Z,5.20
2022-07-25T17:00:03.251Z,3.45
2022-07-25T17:02:30.749Z,5.45
2022-07-25T17:04:58.659Z,6.97
2022-07-25T17:07:26.986Z,4.82
2022-07-25T17:09:54.472Z,3.53
2022-07-25T17:12:22.063Z,2.00
2022-07-25T17:14:49.481Z,3.42
2022-07-25T17:17:16.831Z,5.10
2022-07-25T17:19:44.205Z,3.55
2022-07-25T17:22:11.649Z,5.68
2022-07-25T17:24:40.015Z,4.85
2022-07-25T17:27:08.432Z,4.65
2022-07-25T17:29:36.650Z,5.43
2022-07-25T17:32:05.947Z,4.05
2022-07-25T17:34:33.583Z,1.67
2022-07-25T17:37:02.989Z,6.32
2022-07-25T17:39:30.869Z,7.30
2022-07-25T17:41:58.323Z,12.32
2022-07-25T17:44:26.033Z,3.80
2022-07-25T17:46:54.456Z,3.33
2022-07-25T17:49:22.359Z,1.77
2022-07-25T17:51:49.793Z,3.17
2022-07-25T17:54:17.288Z,6.47
2022-07-25T17:56:45.551Z,5.20
2022-07-25T17:59:13.702Z,6.15
2022-07-25T18:01:41.111Z,3.80
2022-07-25T18:04:09.347Z,7.63
2022-07-25T18:06:37.120Z,7.60
2022-07-25T18:09:04.515Z,3.22
2022-07-25T18:11:31.814Z,4.80
2022-07-25T18:13:59.583Z,4.38
2022-07-25T18:16:27.208Z,3.95
2022-07-25T18:18:54.681Z,1.75
2022-07-25T18:21:22.867Z,1.17
2022-07-25T18:23:50.859Z,1.17
2022-07-25T18:26:18.403Z,5.45
2022-07-25T18:28:45.854Z,0.80
2022-07-25T18:31:13.391Z,1.80
2022-07-25T18:33:41.488Z,1.17
2022-07-25T18:36:09.313Z,2.15
2022-07-25T18:38:36.985Z,1.30
2022-07-25T18:41:28.025Z,1.40
2022-07-25T18:43:52.869Z,1.13
2022-07-25T18:46:20.674Z,4.15
2022-07-25T18:48:48.192Z,2.97
2022-07-25T18:51:15.681Z,2.08
2022-07-25T18:53:47.808Z,7.97
2022-07-25T18:56:16.597Z,3.17
2022-07-25T18:58:44.552Z,2.00
2022-07-25T19:01:12.983Z,3.17
2022-07-25T19:03:40.798Z,4.13
2022-07-25T19:06:09.601Z,5.88
2022-07-25T19:08:37.062Z,2.78
2022-07-25T19:11:05.323Z,0.90
2022-07-25T19:13:51.007Z,3.22
2022-07-25T19:16:19.549Z,6.63
2022-07-25T19:18:47.320Z,1.83
2022-07-25T19:21:17.799Z,3.40
2022-07-25T19:23:50.503Z,1.70
2022-07-25T19:26:20.415Z,2.00
2022-07-25T19:28:48.373Z,1.40
2022-07-25T19:31:15.978Z,1.77
2022-07-25T19:33:45.685Z,3.33
2022-07-25T19:36:14.063Z,3.80
2022-07-25T19:38:41.434Z,4.20
2022-07-25T19:41:09.139Z,3.50
2022-07-25T19:43:36.497Z,5.85
2022-07-25T19:46:03.987Z,3.08
2022-07-25T19:48:31.589Z,0.95
2022-07-25T19:50:59.004Z,3.45
2022-07-25T19:53:28.594Z,2.15
2022-07-25T19:55:56.592Z,2.05
2022-07-25T19:58:23.934Z,11.07
2022-07-25T20:00:51.743Z,1.63
2022-07-25T20:03:23.593Z,5.43
2022-07-25T20:05:52.176Z,1.17
2022-07-25T20:08:19.657Z,2.03
2022-07-25T20:10:48.189Z,8.02
2022-07-25T20:13:17.669Z,1.30
2022-07-25T20:15:45.139Z,6.07
2022-07-25T20:18:18.792Z,1.60
2022-07-25T20:20:47.186Z,1.63
2022-07-25T20:23:14.558Z,2.38
2022-07-25T20:25:41.911Z,4.38
2022-07-25T20:28:09.198Z,1.27
2022-07-25T20:30:36.726Z,2.03
2022-07-25T20:33:08.987Z,1.70
2022-07-25T20:35:38.416Z,1.27
2022-07-25T20:38:09.406Z,3.20
2022-07-25T20:40:48.003Z,1.38
2022-07-25T20:43:15.903Z,2.00
2022-07-25T20:45:43.507Z,9.02
2022-07-25T20:48:11.033Z,4.10
2022-07-25T20:50:39.470Z,6.18
2022-07-25T20:53:07.674Z,1.35
2022-07-25T20:55:35.759Z,2.70
2022-07-25T20:58:04.480Z,6.13
2022-07-25T21:00:32.364Z,5.65
2022-07-25T21:03:00.980Z,8.75
2022-07-25T21:05:28.740Z,4.07
2022-07-25T21:07:56.610Z,1.83
2022-07-25T21:10:24.019Z,3.47
2022-07-25T21:12:51.467Z,2.55
2022-07-25T21:15:20.082Z,5.80
2022-07-25T21:17:47.497Z,3.13
2022-07-25T21:20:15.581Z,2.90
2022-07-25T21:22:44.506Z,4.70
2022-07-25T21:25:11.902Z,3.05
2022-07-25T21:27:40.032Z,0.98
2022-07-25T21:30:09.875Z,2.38
2022-07-25T21:32:39.135Z,2.88
2022-07-25T21:35:06.954Z,6.57
2022-07-25T21:37:34.364Z,4.85
2022-07-25T21:40:01.790Z,8.70
2022-07-25T21:42:29.885Z,5.03
2022-07-25T21:44:57.212Z,12.50
2022-07-25T21:47:24.507Z,6.72
2022-07-25T21:50:10.523Z,3.38
2022-07-25T21:52:40.629Z,4.03
2022-07-25T21:55:08.478Z,3.28
2022-07-25T21:57:35.854Z,4.22
2022-07-25T22:00:08.632Z,2.92
2022-07-25T22:02:45.627Z,2.10
2022-07-25T22:05:14.253Z,4.22
2022-07-25T22:07:42.558Z,1.73
2022-07-25T22:10:11.727Z,5.53
2022-07-25T22:12:40.124Z,12.32
2022-07-25T22:15:12.102Z,4.88
2022-07-25T22:17:48.642Z,5.13
2022-07-25T22:20:18.240Z,3.22
2022-07-25T22:22:49.370Z,6.20
2022-07-25T22:25:17.614Z,5.90
2022-07-25T22:27:45.093Z,3.17
2022-07-25T22:30:18.428Z,3.22
2022-07-25T22:32:50.532Z,8.77
2022-07-25T22:35:18.197Z,4.95
2022-07-25T22:37:46.312Z,2.22
2022-07-25T22:40:14.604Z,7.55
2022-07-25T22:42:41.990Z,4.32
2022-07-25T22:45:09.933Z,6.65
2022-07-25T22:47:37.326Z,6.00
2022-07-25T22:50:05.999Z,7.85
2022-07-25T22:52:34.940Z,3.30
2022-07-25T22:55:02.344Z,6.80
2022-07-25T22:57:29.680Z,4.38
2022-07-25T23:00:09.855Z,3.00
2022-07-25T23:02:38.457Z,4.05
2022-07-25T23:05:06.844Z,14.70
2022-07-25T23:07:34.610Z,2.72
2022-07-25T23:10:02.589Z,6.53
2022-07-25T23:12:29.937Z,3.80
2022-07-25T23:14:57.335Z,11.75
2022-07-25T23:17:24.847Z,6.90
2022-07-25T23:19:54.552Z,3.83
2022-07-25T23:22:23.718Z,5.85
2022-07-25T23:24:51.222Z,9.93
2022-07-25T23:27:18.618Z,8.18
2022-07-25T23:29:46.174Z,6.47
2022-07-25T23:32:13.557Z,6.63
2022-07-25T23:34:41.310Z,8.90
2022-07-25T23:37:08.757Z,5.00
2022-07-25T23:39:36.577Z,3.92
2022-07-25T23:42:04.349Z,7.47
2022-07-25T23:44:31.710Z,6.38
2022-07-25T23:46:59.875Z,5.88
2022-07-25T23:49:29.022Z,16.70
2022-07-25T23:51:57.167Z,5.55
2022-07-25T23:54:24.903Z,8.90
2022-07-25T23:56:52.809Z,7.05
2022-07-25T23:59:20.218Z,9.98
